sensor_id;sensor_type;location;lat;lon;timestamp;temperature;humidity
25410;DHT22;13339;50.840;4.346;2023-04-01T00:01:14;12.30;99.90
25410;DHT22;13339;50.840;4.346;2023-04-01T00:03:40;12.30;99.90
25410;DHT22;13339;50.840;4.346;2023-04-01T00:06:06;12.20;99.90
25410;DHT22;13339;50.840;4.346;2023-04-01T00:08:31;12.20;99.90
25410;DHT22;13339;50.840;4.346;2023-04-01T00:10:57;12.30;99.90
25410;DHT22;13339;50.840;4.346;2023-04-01T00:13:24;12.30;99.90
25410;DHT22;13339;50.840;4.346;2023-04-01T00:15:51;12.30;99.90
25410;DHT22;13339;50.840;4.346;2023-04-01T00:18:17;12.20;99.90
25410;DHT22;13339;50.840;4.346;2023-04-01T00:20:45;12.30;99.90
25410;DHT22;13339;50.840;4.346;2023-04-01T00:23:11;12.30;99.90
25410;DHT22;13339;50.840;4.346;2023-04-01T00:25:37;12.30;99.90
25410;DHT22;13339;50.840;4.346;2023-04-01T00:28:02;12.30;99.90
25410;DHT22;13339;50.840;4.346;2023-04-01T00:30:28;12.40;99.90
25410;DHT22;13339;50.840;4.346;2023-04-01T00:32:54;12.40;99.90
25410;DHT22;13339;50.840;4.346;2023-04-01T00:35:20;12.40;99.90
25410;DHT22;13339;50.840;4.346;2023-04-01T00:37:45;12.30;99.90
25410;DHT22;13339;50.840;4.346;2023-04-01T00:40:25;12.30;99.90
25410;DHT22;13339;50.840;4.346;2023-04-01T00:42:51;12.30;99.90
25410;DHT22;13339;50.840;4.346;2023-04-01T00:45:33;12.30;99.90
25410;DHT22;13339;50.840;4.346;2023-04-01T00:48:04;12.20;99.90
25410;DHT22;13339;50.840;4.346;2023-04-01T00:50:31;12.20;99.90
25410;DHT22;13339;50.840;4.346;2023-04-01T00:53:00;12.30;99.90
25410;DHT22;13339;50.840;4.346;2023-04-01T00:55:27;12.30;99.90
25410;DHT22;13339;50.840;4.346;2023-04-01T00:57:55;12.30;99.90
25410;DHT22;13339;50.840;4.346;2023-04-01T01:00:22;12.40;99.90
25410;DHT22;13339;50.840;4.346;2023-04-01T01:02:50;12.50;99.90
25410;DHT22;13339;50.840;4.346;2023-04-01T01:05:18;12.40;99.90
25410;DHT22;13339;50.840;4.346;2023-04-01T01:10:38;12.50;99.90
25410;DHT22;13339;50.840;4.346;2023-04-01T01:13:32;12.60;99.90
25410;DHT22;13339;50.840;4.346;2023-04-01T01:21:22;12.60;99.90
25410;DHT22;13339;50.840;4.346;2023-04-01T01:27:00;12.70;99.90
25410;DHT22;13339;50.840;4.346;2023-04-01T01:33:17;12.80;99.90
25410;DHT22;13339;50.840;4.346;2023-04-01T01:35:49;12.70;99.90
25410;DHT22;13339;50.840;4.346;2023-04-01T01:38:18;12.80;99.90
25410;DHT22;13339;50.840;4.346;2023-04-01T01:40:49;12.70;99.90
25410;DHT22;13339;50.840;4.346;2023-04-01T01:43:23;12.70;99.90
25410;DHT22;13339;50.840;4.346;2023-04-01T01:45:54;12.70;99.90
25410;DHT22;13339;50.840;4.346;2023-04-01T01:48:21;12.60;99.90
25410;DHT22;13339;50.840;4.346;2023-04-01T01:50:47;12.70;99.90
25410;DHT22;13339;50.840;4.346;2023-04-01T01:53:14;12.60;99.90
25410;DHT22;13339;50.840;4.346;2023-04-01T01:55:44;12.50;99.90
25410;DHT22;13339;50.840;4.346;2023-04-01T01:58:16;12.50;99.90
25410;DHT22;13339;50.840;4.346;2023-04-01T02:00:46;12.60;99.90
25410;DHT22;13339;50.840;4.346;2023-04-01T02:03:14;12.40;99.90
25410;DHT22;13339;50.840;4.346;2023-04-01T02:05:41;12.50;99.90
25410;DHT22;13339;50.840;4.346;2023-04-01T02:08:20;12.50;99.90
25410;DHT22;13339;50.840;4.346;2023-04-01T02:11:02;12.50;99.90
25410;DHT22;13339;50.840;4.346;2023-04-01T02:13:42;12.50;99.90
25410;DHT22;13339;50.840;4.346;2023-04-01T02:16:18;12.60;99.90
25410;DHT22;13339;50.840;4.346;2023-04-01T02:18:48;12.50;99.90
25410;DHT22;13339;50.840;4.346;2023-04-01T02:21:16;12.50;99.90
25410;DHT22;13339;50.840;4.346;2023-04-01T02:23:44;12.50;99.90
25410;DHT22;13339;50.840;4.346;2023-04-01T02:26:11;12.50;99.90
25410;DHT22;13339;50.840;4.346;2023-04-01T02:28:38;12.40;99.90
25410;DHT22;13339;50.840;4.346;2023-04-01T02:31:04;12.50;99.90
25410;DHT22;13339;50.840;4.346;2023-04-01T02:33:31;12.40;99.90
25410;DHT22;13339;50.840;4.346;2023-04-01T02:35:57;12.40;99.90
25410;DHT22;13339;50.840;4.346;2023-04-01T02:38:23;12.30;99.90
25410;DHT22;13339;50.840;4.346;2023-04-01T02:40:51;12.40;99.90
25410;DHT22;13339;50.840;4.346;2023-04-01T02:43:21;12.40;99.90
25410;DHT22;13339;50.840;4.346;2023-04-01T02:45:47;12.40;99.90
25410;DHT22;13339;50.840;4.346;2023-04-01T02:48:12;12.40;99.90
25410;DHT22;13339;50.840;4.346;2023-04-01T02:50:39;12.50;99.90
25410;DHT22;13339;50.840;4.346;2023-04-01T02:53:05;12.50;99.90
25410;DHT22;13339;50.840;4.346;2023-04-01T02:55:32;12.60;99.90
25410;DHT22;13339;50.840;4.346;2023-04-01T02:57:58;12.50;99.90
25410;DHT22;13339;50.840;4.346;2023-04-01T03:00:25;12.40;99.90
25410;DHT22;13339;50.840;4.346;2023-04-01T03:02:51;12.50;99.90
25410;DHT22;13339;50.840;4.346;2023-04-01T03:05:16;12.60;99.90
25410;DHT22;13339;50.840;4.346;2023-04-01T03:07:43;12.70;99.90
25410;DHT22;13339;50.840;4.346;2023-04-01T03:10:09;12.60;99.90
25410;DHT22;13339;50.840;4.346;2023-04-01T03:12:35;12.60;99.90
25410;DHT22;13339;50.840;4.346;2023-04-01T03:15:01;12.60;99.90
25410;DHT22;13339;50.840;4.346;2023-04-01T03:17:26;12.70;99.90
25410;DHT22;13339;50.840;4.346;2023-04-01T03:19:52;12.60;99.90
25410;DHT22;13339;50.840;4.346;2023-04-01T03:22:18;12.60;99.90
25410;DHT22;13339;50.840;4.346;2023-04-01T03:24:46;12.60;99.90
25410;DHT22;13339;50.840;4.346;2023-04-01T03:27:12;12.50;99.90
25410;DHT22;13339;50.840;4.346;2023-04-01T03:29:38;12.50;99.90
25410;DHT22;13339;50.840;4.346;2023-04-01T03:32:04;12.40;99.90
25410;DHT22;13339;50.840;4.346;2023-04-01T03:34:29;12.40;99.90
25410;DHT22;13339;50.840;4.346;2023-04-01T03:36:55;12.50;99.90
25410;DHT22;13339;50.840;4.346;2023-04-01T03:39:20;12.50;99.90
25410;DHT22;13339;50.840;4.346;2023-04-01T03:41:47;12.40;99.90
25410;DHT22;13339;50.840;4.346;2023-04-01T03:44:12;12.50;99.90
25410;DHT22;13339;50.840;4.346;2023-04-01T03:46:38;12.50;99.90
25410;DHT22;13339;50.840;4.346;2023-04-01T03:49:09;12.40;99.90
25410;DHT22;13339;50.840;4.346;2023-04-01T03:51:41;12.40;99.90
25410;DHT22;13339;50.840;4.346;2023-04-01T03:54:08;12.30;99.90
25410;DHT22;13339;50.840;4.346;2023-04-01T03:56:33;12.40;99.90
25410;DHT22;13339;50.840;4.346;2023-04-01T03:59:03;12.30;99.90
25410;DHT22;13339;50.840;4.346;2023-04-01T04:01:29;12.40;99.90
25410;DHT22;13339;50.840;4.346;2023-04-01T04:03:55;12.40;99.90
25410;DHT22;13339;50.840;4.346;2023-04-01T04:06:22;12.40;99.90
25410;DHT22;13339;50.840;4.346;2023-04-01T04:08:48;12.50;99.90
25410;DHT22;13339;50.840;4.346;2023-04-01T04:11:14;12.60;99.90
25410;DHT22;13339;50.840;4.346;2023-04-01T04:13:40;12.60;99.90
25410;DHT22;13339;50.840;4.346;2023-04-01T04:16:06;12.50;99.90
25410;DHT22;13339;50.840;4.346;2023-04-01T04:18:32;12.50;99.90
25410;DHT22;13339;50.840;4.346;2023-04-01T04:20:58;12.50;99.90
25410;DHT22;13339;50.840;4.346;2023-04-01T04:23:23;12.50;99.90
25410;DHT22;13339;50.840;4.346;2023-04-01T04:25:59;12.40;99.90
25410;DHT22;13339;50.840;4.346;2023-04-01T04:28:26;12.40;99.90
25410;DHT22;13339;50.840;4.346;2023-04-01T04:30:52;12.40;99.90
25410;DHT22;13339;50.840;4.346;2023-04-01T04:33:18;12.50;99.90
25410;DHT22;13339;50.840;4.346;2023-04-01T04:35:43;12.50;99.90
25410;DHT22;13339;50.840;4.346;2023-04-01T04:38:09;12.40;99.90
25410;DHT22;13339;50.840;4.346;2023-04-01T04:40:37;12.40;99.90
25410;DHT22;13339;50.840;4.346;2023-04-01T04:43:03;12.50;99.90
25410;DHT22;13339;50.840;4.346;2023-04-01T04:45:29;12.40;99.90
25410;DHT22;13339;50.840;4.346;2023-04-01T04:47:54;12.40;99.90
25410;DHT22;13339;50.840;4.346;2023-04-01T04:50:20;12.30;99.90
25410;DHT22;13339;50.840;4.346;2023-04-01T04:52:45;12.50;99.90
25410;DHT22;13339;50.840;4.346;2023-04-01T04:55:11;12.40;99.90
25410;DHT22;13339;50.840;4.346;2023-04-01T04:57:37;12.30;99.90
25410;DHT22;13339;50.840;4.346;2023-04-01T05:00:03;12.30;99.90
25410;DHT22;13339;50.840;4.346;2023-04-01T05:02:29;12.40;99.90
25410;DHT22;13339;50.840;4.346;2023-04-01T05:04:54;12.30;99.90
25410;DHT22;13339;50.840;4.346;2023-04-01T05:07:20;12.40;99.90
25410;DHT22;13339;50.840;4.346;2023-04-01T05:09:46;12.40;99.90
25410;DHT22;13339;50.840;4.346;2023-04-01T05:12:12;12.50;99.90
25410;DHT22;13339;50.840;4.346;2023-04-01T05:14:38;12.40;99.90
25410;DHT22;13339;50.840;4.346;2023-04-01T05:17:11;12.30;99.90
25410;DHT22;13339;50.840;4.346;2023-04-01T05:19:37;12.20;99.90
25410;DHT22;13339;50.840;4.346;2023-04-01T05:22:04;12.20;99.90
25410;DHT22;13339;50.840;4.346;2023-04-01T05:24:30;12.10;99.90
25410;DHT22;13339;50.840;4.346;2023-04-01T05:26:56;12.00;99.90
25410;DHT22;13339;50.840;4.346;2023-04-01T05:29:23;11.90;99.90
25410;DHT22;13339;50.840;4.346;2023-04-01T05:31:48;11.90;99.90
25410;DHT22;13339;50.840;4.346;2023-04-01T05:34:14;11.90;99.90
25410;DHT22;13339;50.840;4.346;2023-04-01T05:36:40;12.00;99.90
25410;DHT22;13339;50.840;4.346;2023-04-01T05:39:07;11.90;99.90
25410;DHT22;13339;50.840;4.346;2023-04-01T05:41:38;11.90;99.90
25410;DHT22;13339;50.840;4.346;2023-04-01T05:44:04;11.90;99.90
25410;DHT22;13339;50.840;4.346;2023-04-01T05:46:31;12.00;99.90
25410;DHT22;13339;50.840;4.346;2023-04-01T05:48:57;12.00;99.90
25410;DHT22;13339;50.840;4.346;2023-04-01T05:51:22;11.90;99.90
25410;DHT22;13339;50.840;4.346;2023-04-01T05:53:48;12.00;99.90
25410;DHT22;13339;50.840;4.346;2023-04-01T05:56:13;12.00;99.90
25410;DHT22;13339;50.840;4.346;2023-04-01T05:58:39;12.10;99.90
25410;DHT22;13339;50.840;4.346;2023-04-01T06:01:10;12.20;99.90
25410;DHT22;13339;50.840;4.346;2023-04-01T06:03:36;12.10;99.90
25410;DHT22;13339;50.840;4.346;2023-04-01T06:06:02;12.10;99.90
25410;DHT22;13339;50.840;4.346;2023-04-01T06:08:31;12.20;99.90
25410;DHT22;13339;50.840;4.346;2023-04-01T06:19:39;12.10;99.90
25410;DHT22;13339;50.840;4.346;2023-04-01T06:33:18;12.30;99.90
25410;DHT22;13339;50.840;4.346;2023-04-01T06:46:52;12.30;99.90
25410;DHT22;13339;50.840;4.346;2023-04-01T06:52:05;12.50;99.90
25410;DHT22;13339;50.840;4.346;2023-04-01T06:54:40;12.40;99.90
25410;DHT22;13339;50.840;4.346;2023-04-01T06:57:29;12.40;99.90
25410;DHT22;13339;50.840;4.346;2023-04-01T06:59:58;12.30;99.90
25410;DHT22;13339;50.840;4.346;2023-04-01T07:05:04;12.40;99.90
25410;DHT22;13339;50.840;4.346;2023-04-01T07:07:49;12.50;99.90
25410;DHT22;13339;50.840;4.346;2023-04-01T07:10:23;12.60;99.90
25410;DHT22;13339;50.840;4.346;2023-04-01T07:12:54;12.60;99.90
25410;DHT22;13339;50.840;4.346;2023-04-01T07:15:30;12.60;99.90
25410;DHT22;13339;50.840;4.346;2023-04-01T07:18:14;12.50;99.90
25410;DHT22;13339;50.840;4.346;2023-04-01T07:20:41;12.50;99.90
25410;DHT22;13339;50.840;4.346;2023-04-01T07:23:25;12.50;99.90
25410;DHT22;13339;50.840;4.346;2023-04-01T07:26:07;12.60;99.90
25410;DHT22;13339;50.840;4.346;2023-04-01T07:28:36;12.60;99.90
25410;DHT22;13339;50.840;4.346;2023-04-01T07:36:14;12.50;99.90
25410;DHT22;13339;50.840;4.346;2023-04-01T07:38:59;12.40;99.90
25410;DHT22;13339;50.840;4.346;2023-04-01T07:41:47;12.30;99.90
25410;DHT22;13339;50.840;4.346;2023-04-01T07:47:44;12.20;99.90
25410;DHT22;13339;50.840;4.346;2023-04-01T07:55:40;12.40;99.90
25410;DHT22;13339;50.840;4.346;2023-04-01T08:01:40;12.30;99.90
25410;DHT22;13339;50.840;4.346;2023-04-01T08:10:04;12.40;99.90
25410;DHT22;13339;50.840;4.346;2023-04-01T08:15:55;12.50;99.90
25410;DHT22;13339;50.840;4.346;2023-04-01T08:21:43;12.50;99.90
25410;DHT22;13339;50.840;4.346;2023-04-01T08:24:34;12.60;99.90
25410;DHT22;13339;50.840;4.346;2023-04-01T08:27:06;12.70;99.90
25410;DHT22;13339;50.840;4.346;2023-04-01T08:29:55;12.70;99.90
25410;DHT22;13339;50.840;4.346;2023-04-01T08:32:26;12.70;99.90
25410;DHT22;13339;50.840;4.346;2023-04-01T08:37:48;12.80;99.90
25410;DHT22;13339;50.840;4.346;2023-04-01T08:48:48;12.80;99.90
25410;DHT22;13339;50.840;4.346;2023-04-01T08:51:46;12.80;99.90
25410;DHT22;13339;50.840;4.346;2023-04-01T08:57:21;13.00;99.90
25410;DHT22;13339;50.840;4.346;2023-04-01T09:00:04;13.00;99.90
25410;DHT22;13339;50.840;4.346;2023-04-01T09:03:02;12.80;99.90
25410;DHT22;13339;50.840;4.346;2023-04-01T09:08:30;12.70;99.90
25410;DHT22;13339;50.840;4.346;2023-04-01T09:11:05;12.70;99.90
25410;DHT22;13339;50.840;4.346;2023-04-01T09:21:46;13.10;99.90
25410;DHT22;13339;50.840;4.346;2023-04-01T09:27:27;13.00;99.90
25410;DHT22;13339;50.840;4.346;2023-04-01T09:35:51;12.80;99.90
25410;DHT22;13339;50.840;4.346;2023-04-01T09:38:30;12.90;99.90
25410;DHT22;13339;50.840;4.346;2023-04-01T09:41:29;12.80;99.90
25410;DHT22;13339;50.840;4.346;2023-04-01T09:46:37;12.90;99.90
25410;DHT22;13339;50.840;4.346;2023-04-01T09:52:13;13.10;99.90
25410;DHT22;13339;50.840;4.346;2023-04-01T10:03:54;13.10;99.90
25410;DHT22;13339;50.840;4.346;2023-04-01T10:20:59;13.40;99.90
25410;DHT22;13339;50.840;4.346;2023-04-01T10:32:23;13.50;99.90
25410;DHT22;13339;50.840;4.346;2023-04-01T10:54:43;13.70;99.90
25410;DHT22;13339;50.840;4.346;2023-04-01T10:58:02;13.80;99.90
25410;DHT22;13339;50.840;4.346;2023-04-01T11:00:31;14.00;99.90
25410;DHT22;13339;50.840;4.346;2023-04-01T11:15:06;13.90;99.90
25410;DHT22;13339;50.840;4.346;2023-04-01T11:26:07;13.80;99.90
25410;DHT22;13339;50.840;4.346;2023-04-01T11:28:52;13.80;99.90
25410;DHT22;13339;50.840;4.346;2023-04-01T11:51:29;13.70;99.90
25410;DHT22;13339;50.840;4.346;2023-04-01T12:11:22;13.60;99.90
25410;DHT22;13339;50.840;4.346;2023-04-01T12:14:05;13.70;99.90
25410;DHT22;13339;50.840;4.346;2023-04-01T12:16:52;13.70;99.90
25410;DHT22;13339;50.840;4.346;2023-04-01T12:24:45;13.70;99.90
25410;DHT22;13339;50.840;4.346;2023-04-01T12:27:26;13.70;99.90
25410;DHT22;13339;50.840;4.346;2023-04-01T12:35:23;13.60;99.90
25410;DHT22;13339;50.840;4.346;2023-04-01T12:46:05;13.50;99.90
25410;DHT22;13339;50.840;4.346;2023-04-01T12:49:38;13.60;99.90
25410;DHT22;13339;50.840;4.346;2023-04-01T12:59:50;13.70;99.90
25410;DHT22;13339;50.840;4.346;2023-04-01T13:10:31;13.10;99.90
25410;DHT22;13339;50.840;4.346;2023-04-01T13:13:24;13.10;99.90
25410;DHT22;13339;50.840;4.346;2023-04-01T13:21:27;13.40;99.90
25410;DHT22;13339;50.840;4.346;2023-04-01T13:35:37;13.30;99.90
25410;DHT22;13339;50.840;4.346;2023-04-01T13:41:48;13.30;99.90
25410;DHT22;13339;50.840;4.346;2023-04-01T13:44:34;13.20;99.90
25410;DHT22;13339;50.840;4.346;2023-04-01T13:47:29;13.20;99.90
25410;DHT22;13339;50.840;4.346;2023-04-01T13:50:34;13.10;99.90
25410;DHT22;13339;50.840;4.346;2023-04-01T13:53:16;13.20;99.90
25410;DHT22;13339;50.840;4.346;2023-04-01T13:56:12;13.20;99.90
25410;DHT22;13339;50.840;4.346;2023-04-01T14:07:35;13.60;99.90
25410;DHT22;13339;50.840;4.346;2023-04-01T14:10:13;13.70;99.90
25410;DHT22;13339;50.840;4.346;2023-04-01T14:13:00;13.70;99.90
25410;DHT22;13339;50.840;4.346;2023-04-01T14:15:47;13.90;99.90
25410;DHT22;13339;50.840;4.346;2023-04-01T14:32:37;13.80;99.90
25410;DHT22;13339;50.840;4.346;2023-04-01T14:40:27;13.70;99.90
25410;DHT22;13339;50.840;4.346;2023-04-01T14:48:48;13.50;99.90
25410;DHT22;13339;50.840;4.346;2023-04-01T14:54:14;13.60;99.90
25410;DHT22;13339;50.840;4.346;2023-04-01T14:56:49;13.40;99.90
25410;DHT22;13339;50.840;4.346;2023-04-01T15:12:57;13.00;99.90
25410;DHT22;13339;50.840;4.346;2023-04-01T15:24:35;13.10;99.90
25410;DHT22;13339;50.840;4.346;2023-04-01T15:30:17;13.30;99.90
25410;DHT22;13339;50.840;4.346;2023-04-01T15:38:23;13.20;99.90
25410;DHT22;13339;50.840;4.346;2023-04-01T15:41:14;13.20;99.90
25410;DHT22;13339;50.840;4.346;2023-04-01T15:43:49;13.00;99.90
25410;DHT22;13339;50.840;4.346;2023-04-01T15:46:44;13.00;99.90
25410;DHT22;13339;50.840;4.346;2023-04-01T15:49:43;12.80;99.90
25410;DHT22;13339;50.840;4.346;2023-04-01T15:55:01;12.80;99.90
25410;DHT22;13339;50.840;4.346;2023-04-01T15:57:38;12.80;99.90
25410;DHT22;13339;50.840;4.346;2023-04-01T16:00:25;12.70;99.90
25410;DHT22;13339;50.840;4.346;2023-04-01T16:03:16;12.70;99.90
25410;DHT22;13339;50.840;4.346;2023-04-01T16:16:34;12.70;99.90
25410;DHT22;13339;50.840;4.346;2023-04-01T16:22:12;12.60;99.90
25410;DHT22;13339;50.840;4.346;2023-04-01T16:24:41;12.70;99.90
25410;DHT22;13339;50.840;4.346;2023-04-01T16:27:35;12.80;99.90
25410;DHT22;13339;50.840;4.346;2023-04-01T16:30:55;12.80;99.90
25410;DHT22;13339;50.840;4.346;2023-04-01T16:35:49;12.70;99.90
25410;DHT22;13339;50.840;4.346;2023-04-01T16:38:36;12.60;99.90
25410;DHT22;13339;50.840;4.346;2023-04-01T16:43:56;12.70;99.90
25410;DHT22;13339;50.840;4.346;2023-04-01T16:50:07;12.80;99.90
25410;DHT22;13339;50.840;4.346;2023-04-01T16:55:15;12.60;99.90
25410;DHT22;13339;50.840;4.346;2023-04-01T16:57:51;12.50;99.90
25410;DHT22;13339;50.840;4.346;2023-04-01T17:08:58;12.60;99.90
25410;DHT22;13339;50.840;4.346;2023-04-01T17:11:39;12.30;99.90
25410;DHT22;13339;50.840;4.346;2023-04-01T17:28:52;12.40;99.90
25410;DHT22;13339;50.840;4.346;2023-04-01T17:39:57;12.40;99.90
25410;DHT22;13339;50.840;4.346;2023-04-01T17:47:54;12.40;99.90
25410;DHT22;13339;50.840;4.346;2023-04-01T17:50:30;12.40;99.90
25410;DHT22;13339;50.840;4.346;2023-04-01T18:04:43;12.20;99.90
25410;DHT22;13339;50.840;4.346;2023-04-01T18:07:35;12.20;99.90
25410;DHT22;13339;50.840;4.346;2023-04-01T18:10:14;12.20;99.90
25410;DHT22;13339;50.840;4.346;2023-04-01T18:18:42;12.20;99.90
25410;DHT22;13339;50.840;4.346;2023-04-01T18:24:33;12.20;99.90
25410;DHT22;13339;50.840;4.346;2023-04-01T18:27:03;12.30;99.90
25410;DHT22;13339;50.840;4.346;2023-04-01T18:29:48;12.20;99.90
25410;DHT22;13339;50.840;4.346;2023-04-01T18:32:44;12.20;99.90
25410;DHT22;13339;50.840;4.346;2023-04-01T18:35:29;12.10;99.90
25410;DHT22;13339;50.840;4.346;2023-04-01T18:38:15;12.10;99.90
25410;DHT22;13339;50.840;4.346;2023-04-01T18:40:53;12.20;99.90
25410;DHT22;13339;50.840;4.346;2023-04-01T18:46:52;12.10;99.90
25410;DHT22;13339;50.840;4.346;2023-04-01T18:49:48;12.10;99.90
25410;DHT22;13339;50.840;4.346;2023-04-01T18:52:33;12.10;99.90
25410;DHT22;13339;50.840;4.346;2023-04-01T19:03:21;11.90;99.90
25410;DHT22;13339;50.840;4.346;2023-04-01T19:05:52;12.00;99.90
25410;DHT22;13339;50.840;4.346;2023-04-01T19:08:28;12.10;99.90
25410;DHT22;13339;50.840;4.346;2023-04-01T19:10:59;12.10;99.90
25410;DHT22;13339;50.840;4.346;2023-04-01T19:14:33;12.00;99.90
25410;DHT22;13339;50.840;4.346;2023-04-01T19:16:53;11.90;99.90
25410;DHT22;13339;50.840;4.346;2023-04-01T19:25:46;11.80;99.90
25410;DHT22;13339;50.840;4.346;2023-04-01T19:31:15;11.90;99.90
25410;DHT22;13339;50.840;4.346;2023-04-01T19:33:59;11.80;99.90
25410;DHT22;13339;50.840;4.346;2023-04-01T19:36:50;11.60;99.90
25410;DHT22;13339;50.840;4.346;2023-04-01T19:42:32;11.60;99.90
25410;DHT22;13339;50.840;4.346;2023-04-01T19:50:57;11.50;99.90
25410;DHT22;13339;50.840;4.346;2023-04-01T19:56:19;11.50;99.90
25410;DHT22;13339;50.840;4.346;2023-04-01T20:04:17;11.50;99.90
25410;DHT22;13339;50.840;4.346;2023-04-01T20:06:53;11.50;99.90
25410;DHT22;13339;50.840;4.346;2023-04-01T20:15:03;11.50;99.90
25410;DHT22;13339;50.840;4.346;2023-04-01T20:17:44;11.50;99.90
25410;DHT22;13339;50.840;4.346;2023-04-01T20:25:27;11.60;99.90
25410;DHT22;13339;50.840;4.346;2023-04-01T20:30:30;11.50;99.90
25410;DHT22;13339;50.840;4.346;2023-04-01T20:36:22;11.50;99.90
25410;DHT22;13339;50.840;4.346;2023-04-01T20:44:41;11.50;99.90
25410;DHT22;13339;50.840;4.346;2023-04-01T20:50:19;11.50;99.90
25410;DHT22;13339;50.840;4.346;2023-04-01T20:53:07;11.60;99.90
25410;DHT22;13339;50.840;4.346;2023-04-01T21:00:57;11.60;99.90
25410;DHT22;13339;50.840;4.346;2023-04-01T21:12:45;11.50;99.90
25410;DHT22;13339;50.840;4.346;2023-04-01T21:20:43;11.40;99.90
25410;DHT22;13339;50.840;4.346;2023-04-01T21:23:40;11.30;99.90
25410;DHT22;13339;50.840;4.346;2023-04-01T21:29:17;11.40;99.90
25410;DHT22;13339;50.840;4.346;2023-04-01T21:35:00;11.50;99.90
25410;DHT22;13339;50.840;4.346;2023-04-01T21:37:33;11.50;99.90
25410;DHT22;13339;50.840;4.346;2023-04-01T21:43:05;11.50;99.90
25410;DHT22;13339;50.840;4.346;2023-04-01T21:46:02;11.50;99.90
25410;DHT22;13339;50.840;4.346;2023-04-01T21:51:28;11.30;99.90
25410;DHT22;13339;50.840;4.346;2023-04-01T21:56:25;11.40;99.90
25410;DHT22;13339;50.840;4.346;2023-04-01T22:02:22;11.50;99.90
25410;DHT22;13339;50.840;4.346;2023-04-01T22:04:59;11.40;99.90
25410;DHT22;13339;50.840;4.346;2023-04-01T22:08:05;11.40;99.90
25410;DHT22;13339;50.840;4.346;2023-04-01T22:10:40;11.50;99.90
25410;DHT22;13339;50.840;4.346;2023-04-01T22:13:45;11.60;99.90
25410;DHT22;13339;50.840;4.346;2023-04-01T22:16:31;11.70;99.90
25410;DHT22;13339;50.840;4.346;2023-04-01T22:21:36;11.50;99.90
25410;DHT22;13339;50.840;4.346;2023-04-01T22:26:55;11.30;99.90
25410;DHT22;13339;50.840;4.346;2023-04-01T22:29:36;11.40;99.90
25410;DHT22;13339;50.840;4.346;2023-04-01T22:32:21;11.30;99.90
25410;DHT22;13339;50.840;4.346;2023-04-01T22:35:09;11.30;99.90
25410;DHT22;13339;50.840;4.346;2023-04-01T22:40:29;11.20;99.90
25410;DHT22;13339;50.840;4.346;2023-04-01T22:43:04;11.00;99.90
25410;DHT22;13339;50.840;4.346;2023-04-01T22:45:40;11.00;99.90
25410;DHT22;13339;50.840;4.346;2023-04-01T22:48:18;10.80;99.90
25410;DHT22;13339;50.840;4.346;2023-04-01T22:51:07;10.80;99.90
25410;DHT22;13339;50.840;4.346;2023-04-01T22:53:52;10.80;99.90
25410;DHT22;13339;50.840;4.346;2023-04-01T22:56:44;10.70;99.90
25410;DHT22;13339;50.840;4.346;2023-04-01T22:59:20;10.70;99.90
25410;DHT22;13339;50.840;4.346;2023-04-01T23:02:01;10.70;99.90
25410;DHT22;13339;50.840;4.346;2023-04-01T23:04:32;10.50;99.90
25410;DHT22;13339;50.840;4.346;2023-04-01T23:07:03;10.60;99.90
25410;DHT22;13339;50.840;4.346;2023-04-01T23:09:31;10.70;99.90
25410;DHT22;13339;50.840;4.346;2023-04-01T23:12:02;10.70;99.90
25410;DHT22;13339;50.840;4.346;2023-04-01T23:27:51;10.30;99.90
25410;DHT22;13339;50.840;4.346;2023-04-01T23:35:51;10.50;99.90
25410;DHT22;13339;50.840;4.346;2023-04-01T23:38:19;10.50;99.90
25410;DHT22;13339;50.840;4.346;2023-04-01T23:40:49;10.30;99.90
25410;DHT22;13339;50.840;4.346;2023-04-01T23:43:38;10.30;99.90
25410;DHT22;13339;50.840;4.346;2023-04-01T23:46:06;10.30;99.90
25410;DHT22;13339;50.840;4.346;2023-04-01T23:48:41;10.40;99.90
25410;DHT22;13339;50.840;4.346;2023-04-01T23:51:14;10.40;99.90
25410;DHT22;13339;50.840;4.346;2023-04-01T23:53:44;10.50;99.90
25410;DHT22;13339;50.840;4.346;2023-04-01T23:56:10;10.70;99.90
25410;DHT22;13339;50.840;4.346;2023-04-01T23:58:50;10.60;99.90
